sensor_id;sensor_type;location;lat;lon;timestamp;pressure;altitude;pressure_sealevel;temperature;humidity
16016;BME280;8112;53.592;10.184;2022-12-28T00:02:51;101326.25;;;4.81;100.00
16016;BME280;8112;53.592;10.184;2022-12-28T00:07:52;101308.06;;;4.78;100.00
16016;BME280;8112;53.592;10.184;2022-12-28T00:12:54;101307.22;;;4.76;100.00
16016;BME280;8112;53.592;10.184;2022-12-28T00:17:59;101278.34;;;4.82;100.00
16016;BME280;8112;53.592;10.184;2022-12-28T00:23:03;101279.28;;;4.79;100.00
16016;BME280;8112;53.592;10.184;2022-12-28T00:28:05;101263.81;;;4.71;100.00
16016;BME280;8112;53.592;10.184;2022-12-28T00:33:08;101252.47;;;4.73;100.00
16016;BME280;8112;53.592;10.184;2022-12-28T00:38:10;101234.09;;;4.76;100.00
16016;BME280;8112;53.592;10.184;2022-12-28T00:43:14;101232.34;;;4.76;100.00
16016;BME280;8112;53.592;10.184;2022-12-28T00:48:17;101214.09;;;4.75;100.00
16016;BME280;8112;53.592;10.184;2022-12-28T00:53:19;101207.03;;;4.80;100.00
16016;BME280;8112;53.592;10.184;2022-12-28T00:58:20;101205.34;;;4.77;100.00
16016;BME280;8112;53.592;10.184;2022-12-28T01:03:23;101194.78;;;4.82;100.00
16016;BME280;8112;53.592;10.184;2022-12-28T01:08:25;101185.44;;;4.73;100.00
16016;BME280;8112;53.592;10.184;2022-12-28T01:13:27;101167.09;;;4.76;100.00
16016;BME280;8112;53.592;10.184;2022-12-28T01:18:30;101168.88;;;4.74;100.00
16016;BME280;8112;53.592;10.184;2022-12-28T01:23:32;101148.03;;;4.73;100.00
16016;BME280;8112;53.592;10.184;2022-12-28T01:28:34;101133.34;;;4.68;100.00
16016;BME280;8112;53.592;10.184;2022-12-28T01:33:38;101121.19;;;4.67;100.00
16016;BME280;8112;53.592;10.184;2022-12-28T01:38:40;101113.38;;;4.67;100.00
16016;BME280;8112;53.592;10.184;2022-12-28T01:43:44;101106.25;;;4.73;100.00
16016;BME280;8112;53.592;10.184;2022-12-28T01:48:51;101081.78;;;4.77;100.00
16016;BME280;8112;53.592;10.184;2022-12-28T01:53:54;101090.50;;;4.76;100.00
16016;BME280;8112;53.592;10.184;2022-12-28T01:58:59;101070.22;;;4.85;100.00
16016;BME280;8112;53.592;10.184;2022-12-28T02:04:02;101054.69;;;4.81;100.00
16016;BME280;8112;53.592;10.184;2022-12-28T02:09:08;101065.94;;;4.83;100.00
16016;BME280;8112;53.592;10.184;2022-12-28T02:14:12;101055.41;;;4.84;100.00
16016;BME280;8112;53.592;10.184;2022-12-28T02:19:20;101055.34;;;4.88;100.00
16016;BME280;8112;53.592;10.184;2022-12-28T02:25:00;101050.34;;;4.80;100.00
16016;BME280;8112;53.592;10.184;2022-12-28T02:30:10;101049.00;;;4.96;100.00
16016;BME280;8112;53.592;10.184;2022-12-28T02:35:18;101046.38;;;4.96;100.00
16016;BME280;8112;53.592;10.184;2022-12-28T02:40:24;101031.50;;;4.98;100.00
16016;BME280;8112;53.592;10.184;2022-12-28T02:45:34;101009.50;;;5.06;100.00
16016;BME280;8112;53.592;10.184;2022-12-28T02:55:49;100984.34;;;5.03;100.00
16016;BME280;8112;53.592;10.184;2022-12-28T03:01:16;100964.63;;;4.94;100.00
16016;BME280;8112;53.592;10.184;2022-12-28T03:06:28;100959.66;;;4.85;100.00
16016;BME280;8112;53.592;10.184;2022-12-28T03:12:00;100951.31;;;4.74;100.00
16016;BME280;8112;53.592;10.184;2022-12-28T03:17:05;100945.28;;;4.71;100.00
16016;BME280;8112;53.592;10.184;2022-12-28T03:22:29;100930.63;;;4.67;100.00
16016;BME280;8112;53.592;10.184;2022-12-28T03:27:53;100934.50;;;4.54;100.00
16016;BME280;8112;53.592;10.184;2022-12-28T03:33:13;100916.97;;;4.59;100.00
16016;BME280;8112;53.592;10.184;2022-12-28T03:38:20;100898.03;;;4.52;100.00
16016;BME280;8112;53.592;10.184;2022-12-28T03:43:34;100893.22;;;4.38;100.00
16016;BME280;8112;53.592;10.184;2022-12-28T03:48:47;100889.88;;;4.35;100.00
16016;BME280;8112;53.592;10.184;2022-12-28T03:53:50;100886.78;;;4.22;100.00
16016;BME280;8112;53.592;10.184;2022-12-28T03:58:56;100876.59;;;4.12;100.00
16016;BME280;8112;53.592;10.184;2022-12-28T04:04:07;100856.78;;;4.07;100.00
16016;BME280;8112;53.592;10.184;2022-12-28T04:09:11;100852.81;;;3.93;100.00
16016;BME280;8112;53.592;10.184;2022-12-28T04:14:17;100853.06;;;3.85;100.00
16016;BME280;8112;53.592;10.184;2022-12-28T04:19:19;100837.41;;;3.85;100.00
16016;BME280;8112;53.592;10.184;2022-12-28T04:24:23;100822.91;;;3.77;100.00
16016;BME280;8112;53.592;10.184;2022-12-28T04:29:27;100815.22;;;3.72;100.00
16016;BME280;8112;53.592;10.184;2022-12-28T04:34:43;100793.44;;;3.73;100.00
16016;BME280;8112;53.592;10.184;2022-12-28T04:39:46;100783.84;;;3.75;100.00
16016;BME280;8112;53.592;10.184;2022-12-28T04:44:50;100766.63;;;3.69;100.00
16016;BME280;8112;53.592;10.184;2022-12-28T04:49:52;100766.69;;;3.68;100.00
16016;BME280;8112;53.592;10.184;2022-12-28T04:54:54;100752.75;;;3.69;100.00
16016;BME280;8112;53.592;10.184;2022-12-28T04:59:57;100740.41;;;3.74;100.00
16016;BME280;8112;53.592;10.184;2022-12-28T05:04:59;100733.50;;;3.73;100.00
16016;BME280;8112;53.592;10.184;2022-12-28T05:10:01;100736.22;;;3.70;100.00
16016;BME280;8112;53.592;10.184;2022-12-28T05:15:06;100718.69;;;3.74;100.00
16016;BME280;8112;53.592;10.184;2022-12-28T05:20:09;100723.28;;;3.67;100.00
16016;BME280;8112;53.592;10.184;2022-12-28T05:25:11;100709.25;;;3.71;100.00
16016;BME280;8112;53.592;10.184;2022-12-28T05:30:14;100703.03;;;3.75;100.00
16016;BME280;8112;53.592;10.184;2022-12-28T05:35:17;100702.22;;;3.73;100.00
16016;BME280;8112;53.592;10.184;2022-12-28T05:40:20;100701.22;;;3.77;100.00
16016;BME280;8112;53.592;10.184;2022-12-28T05:45:23;100705.53;;;3.78;100.00
16016;BME280;8112;53.592;10.184;2022-12-28T05:50:25;100706.34;;;3.80;100.00
16016;BME280;8112;53.592;10.184;2022-12-28T05:55:30;100701.84;;;3.85;100.00
16016;BME280;8112;53.592;10.184;2022-12-28T06:00:33;100709.50;;;3.90;100.00
16016;BME280;8112;53.592;10.184;2022-12-28T06:05:36;100699.94;;;3.91;100.00
16016;BME280;8112;53.592;10.184;2022-12-28T06:10:37;100689.31;;;3.97;100.00
16016;BME280;8112;53.592;10.184;2022-12-28T06:15:41;100656.22;;;3.99;100.00
16016;BME280;8112;53.592;10.184;2022-12-28T06:20:44;100634.31;;;4.05;100.00
16016;BME280;8112;53.592;10.184;2022-12-28T06:25:45;100629.75;;;4.11;100.00
16016;BME280;8112;53.592;10.184;2022-12-28T06:30:49;100616.38;;;4.21;100.00
16016;BME280;8112;53.592;10.184;2022-12-28T06:35:51;100612.13;;;4.18;100.00
16016;BME280;8112;53.592;10.184;2022-12-28T06:40:53;100612.78;;;4.25;100.00
16016;BME280;8112;53.592;10.184;2022-12-28T06:45:58;100607.47;;;4.26;100.00
16016;BME280;8112;53.592;10.184;2022-12-28T06:51:05;100601.22;;;4.32;100.00
16016;BME280;8112;53.592;10.184;2022-12-28T06:56:09;100594.16;;;4.34;100.00
16016;BME280;8112;53.592;10.184;2022-12-28T07:01:17;100592.16;;;4.42;100.00
16016;BME280;8112;53.592;10.184;2022-12-28T07:06:21;100590.28;;;4.46;100.00
16016;BME280;8112;53.592;10.184;2022-12-28T07:11:23;100574.56;;;4.48;100.00
16016;BME280;8112;53.592;10.184;2022-12-28T07:16:37;100584.09;;;4.49;100.00
16016;BME280;8112;53.592;10.184;2022-12-28T07:21:39;100576.84;;;4.57;100.00
16016;BME280;8112;53.592;10.184;2022-12-28T07:26:41;100565.59;;;4.55;100.00
16016;BME280;8112;53.592;10.184;2022-12-28T07:31:45;100579.25;;;4.63;100.00
16016;BME280;8112;53.592;10.184;2022-12-28T07:36:49;100553.66;;;4.73;100.00
16016;BME280;8112;53.592;10.184;2022-12-28T07:41:51;100564.72;;;4.80;100.00
16016;BME280;8112;53.592;10.184;2022-12-28T07:46:58;100574.25;;;4.81;100.00
16016;BME280;8112;53.592;10.184;2022-12-28T07:52:01;100569.41;;;4.94;100.00
16016;BME280;8112;53.592;10.184;2022-12-28T07:57:04;100556.97;;;5.01;100.00
16016;BME280;8112;53.592;10.184;2022-12-28T08:02:11;100558.41;;;5.08;100.00
16016;BME280;8112;53.592;10.184;2022-12-28T08:07:15;100568.66;;;5.14;100.00
16016;BME280;8112;53.592;10.184;2022-12-28T08:12:19;100547.53;;;5.19;100.00
16016;BME280;8112;53.592;10.184;2022-12-28T08:17:23;100559.50;;;5.24;100.00
16016;BME280;8112;53.592;10.184;2022-12-28T08:22:25;100554.94;;;5.30;100.00
16016;BME280;8112;53.592;10.184;2022-12-28T08:27:27;100552.00;;;5.39;100.00
16016;BME280;8112;53.592;10.184;2022-12-28T08:32:32;100555.06;;;5.49;100.00
16016;BME280;8112;53.592;10.184;2022-12-28T08:37:34;100554.16;;;5.50;100.00
16016;BME280;8112;53.592;10.184;2022-12-28T08:42:37;100553.91;;;5.56;100.00
16016;BME280;8112;53.592;10.184;2022-12-28T08:47:40;100553.44;;;5.67;100.00
16016;BME280;8112;53.592;10.184;2022-12-28T08:52:44;100553.75;;;5.81;100.00
16016;BME280;8112;53.592;10.184;2022-12-28T08:57:46;100554.59;;;5.82;100.00
16016;BME280;8112;53.592;10.184;2022-12-28T09:02:50;100551.72;;;5.88;100.00
16016;BME280;8112;53.592;10.184;2022-12-28T09:07:51;100560.22;;;5.93;100.00
16016;BME280;8112;53.592;10.184;2022-12-28T09:12:54;100556.44;;;6.01;100.00
16016;BME280;8112;53.592;10.184;2022-12-28T09:18:05;100550.91;;;6.08;100.00
16016;BME280;8112;53.592;10.184;2022-12-28T09:23:07;100548.53;;;6.23;100.00
16016;BME280;8112;53.592;10.184;2022-12-28T09:28:09;100536.94;;;6.28;100.00
16016;BME280;8112;53.592;10.184;2022-12-28T09:33:14;100551.31;;;6.39;100.00
16016;BME280;8112;53.592;10.184;2022-12-28T09:38:39;100541.50;;;6.44;100.00
16016;BME280;8112;53.592;10.184;2022-12-28T09:43:42;100543.91;;;6.49;100.00
16016;BME280;8112;53.592;10.184;2022-12-28T09:48:51;100545.69;;;6.67;100.00
16016;BME280;8112;53.592;10.184;2022-12-28T09:53:55;100547.19;;;6.73;100.00
16016;BME280;8112;53.592;10.184;2022-12-28T09:58:59;100550.72;;;6.72;100.00
16016;BME280;8112;53.592;10.184;2022-12-28T10:04:03;100551.28;;;6.79;100.00
16016;BME280;8112;53.592;10.184;2022-12-28T10:09:14;100526.81;;;6.80;100.00
16016;BME280;8112;53.592;10.184;2022-12-28T10:14:26;100533.38;;;6.89;100.00
16016;BME280;8112;53.592;10.184;2022-12-28T10:19:31;100538.69;;;6.87;100.00
16016;BME280;8112;53.592;10.184;2022-12-28T10:24:33;100534.72;;;6.97;100.00
16016;BME280;8112;53.592;10.184;2022-12-28T10:29:35;100535.97;;;7.08;100.00
16016;BME280;8112;53.592;10.184;2022-12-28T10:34:53;100521.78;;;7.12;100.00
16016;BME280;8112;53.592;10.184;2022-12-28T10:40:00;100521.50;;;7.18;100.00
16016;BME280;8112;53.592;10.184;2022-12-28T10:45:05;100525.97;;;7.16;100.00
16016;BME280;8112;53.592;10.184;2022-12-28T10:50:36;100521.66;;;7.15;100.00
16016;BME280;8112;53.592;10.184;2022-12-28T10:55:40;100527.56;;;7.38;100.00
16016;BME280;8112;53.592;10.184;2022-12-28T11:00:42;100534.16;;;7.27;100.00
16016;BME280;8112;53.592;10.184;2022-12-28T11:06:09;100530.72;;;7.45;100.00
16016;BME280;8112;53.592;10.184;2022-12-28T11:11:19;100528.78;;;7.48;100.00
16016;BME280;8112;53.592;10.184;2022-12-28T11:16:22;100512.81;;;7.53;100.00
16016;BME280;8112;53.592;10.184;2022-12-28T11:21:26;100519.56;;;7.59;100.00
16016;BME280;8112;53.592;10.184;2022-12-28T11:26:28;100506.59;;;7.55;100.00
16016;BME280;8112;53.592;10.184;2022-12-28T11:31:32;100521.09;;;7.63;100.00
16016;BME280;8112;53.592;10.184;2022-12-28T11:36:39;100517.91;;;7.74;100.00
16016;BME280;8112;53.592;10.184;2022-12-28T11:41:42;100509.38;;;7.88;100.00
16016;BME280;8112;53.592;10.184;2022-12-28T11:47:01;100515.41;;;7.72;100.00
16016;BME280;8112;53.592;10.184;2022-12-28T11:57:45;100495.41;;;7.69;100.00
16016;BME280;8112;53.592;10.184;2022-12-28T12:02:50;100494.09;;;7.78;100.00
16016;BME280;8112;53.592;10.184;2022-12-28T12:07:52;100487.31;;;7.74;100.00
16016;BME280;8112;53.592;10.184;2022-12-28T12:12:56;100475.56;;;7.64;100.00
16016;BME280;8112;53.592;10.184;2022-12-28T12:18:01;100475.56;;;7.64;100.00
16016;BME280;8112;53.592;10.184;2022-12-28T12:23:07;100484.84;;;7.71;100.00
16016;BME280;8112;53.592;10.184;2022-12-28T12:28:26;100472.88;;;7.65;100.00
16016;BME280;8112;53.592;10.184;2022-12-28T12:33:34;100481.13;;;7.75;100.00
16016;BME280;8112;53.592;10.184;2022-12-28T12:39:00;100464.47;;;7.76;100.00
16016;BME280;8112;53.592;10.184;2022-12-28T12:44:19;100478.03;;;7.84;100.00
16016;BME280;8112;53.592;10.184;2022-12-28T12:49:33;100474.63;;;7.82;100.00
16016;BME280;8112;53.592;10.184;2022-12-28T12:54:51;100473.44;;;7.72;100.00
16016;BME280;8112;53.592;10.184;2022-12-28T13:00:10;100477.81;;;7.72;100.00
16016;BME280;8112;53.592;10.184;2022-12-28T13:05:17;100471.06;;;7.83;100.00
16016;BME280;8112;53.592;10.184;2022-12-28T13:10:24;100473.03;;;7.80;100.00
16016;BME280;8112;53.592;10.184;2022-12-28T13:15:30;100468.81;;;7.93;100.00
16016;BME280;8112;53.592;10.184;2022-12-28T13:20:32;100468.91;;;7.92;100.00
16016;BME280;8112;53.592;10.184;2022-12-28T13:25:44;100468.44;;;7.83;100.00
16016;BME280;8112;53.592;10.184;2022-12-28T13:31:04;100454.75;;;7.78;100.00
16016;BME280;8112;53.592;10.184;2022-12-28T13:36:12;100444.06;;;7.81;100.00
16016;BME280;8112;53.592;10.184;2022-12-28T13:41:22;100461.69;;;7.79;100.00
16016;BME280;8112;53.592;10.184;2022-12-28T13:46:29;100457.34;;;7.78;100.00
16016;BME280;8112;53.592;10.184;2022-12-28T13:51:33;100456.25;;;7.82;100.00
16016;BME280;8112;53.592;10.184;2022-12-28T13:56:38;100447.56;;;7.82;100.00
16016;BME280;8112;53.592;10.184;2022-12-28T14:01:47;100464.75;;;7.88;100.00
16016;BME280;8112;53.592;10.184;2022-12-28T14:06:50;100458.88;;;7.82;100.00
16016;BME280;8112;53.592;10.184;2022-12-28T14:11:52;100458.88;;;7.82;100.00
16016;BME280;8112;53.592;10.184;2022-12-28T14:16:56;100460.75;;;7.80;100.00
16016;BME280;8112;53.592;10.184;2022-12-28T14:21:58;100452.28;;;7.75;100.00
16016;BME280;8112;53.592;10.184;2022-12-28T14:27:00;100461.78;;;7.78;100.00
16016;BME280;8112;53.592;10.184;2022-12-28T14:32:06;100449.31;;;7.81;100.00
16016;BME280;8112;53.592;10.184;2022-12-28T14:37:21;100449.66;;;7.75;100.00
16016;BME280;8112;53.592;10.184;2022-12-28T14:42:27;100447.97;;;7.74;100.00
16016;BME280;8112;53.592;10.184;2022-12-28T14:47:34;100446.66;;;7.65;100.00
16016;BME280;8112;53.592;10.184;2022-12-28T14:52:41;100449.19;;;7.67;100.00
16016;BME280;8112;53.592;10.184;2022-12-28T14:57:44;100448.88;;;7.73;100.00
16016;BME280;8112;53.592;10.184;2022-12-28T15:02:48;100450.38;;;7.61;100.00
16016;BME280;8112;53.592;10.184;2022-12-28T15:07:50;100442.88;;;7.71;100.00
16016;BME280;8112;53.592;10.184;2022-12-28T15:12:52;100438.78;;;7.65;100.00
16016;BME280;8112;53.592;10.184;2022-12-28T15:17:56;100434.38;;;7.66;100.00
16016;BME280;8112;53.592;10.184;2022-12-28T15:22:58;100430.81;;;7.67;100.00
16016;BME280;8112;53.592;10.184;2022-12-28T15:28:00;100426.78;;;7.61;100.00
16016;BME280;8112;53.592;10.184;2022-12-28T15:33:08;100418.91;;;7.61;100.00
16016;BME280;8112;53.592;10.184;2022-12-28T15:38:14;100419.19;;;7.73;100.00
16016;BME280;8112;53.592;10.184;2022-12-28T15:43:17;100418.50;;;7.69;100.00
16016;BME280;8112;53.592;10.184;2022-12-28T15:48:20;100421.13;;;7.69;100.00
16016;BME280;8112;53.592;10.184;2022-12-28T15:53:22;100422.03;;;7.68;100.00
16016;BME280;8112;53.592;10.184;2022-12-28T15:58:24;100407.22;;;7.67;100.00
16016;BME280;8112;53.592;10.184;2022-12-28T16:03:28;100413.16;;;7.70;100.00
16016;BME280;8112;53.592;10.184;2022-12-28T16:08:30;100408.41;;;7.61;100.00
16016;BME280;8112;53.592;10.184;2022-12-28T16:13:33;100399.53;;;7.64;100.00
16016;BME280;8112;53.592;10.184;2022-12-28T16:18:38;100386.50;;;7.62;100.00
16016;BME280;8112;53.592;10.184;2022-12-28T16:23:42;100387.63;;;7.74;100.00
16016;BME280;8112;53.592;10.184;2022-12-28T16:28:48;100381.28;;;7.78;100.00
16016;BME280;8112;53.592;10.184;2022-12-28T16:33:56;100378.13;;;7.72;100.00
16016;BME280;8112;53.592;10.184;2022-12-28T16:38:58;100386.16;;;7.68;100.00
16016;BME280;8112;53.592;10.184;2022-12-28T16:44:02;100386.16;;;7.68;100.00
16016;BME280;8112;53.592;10.184;2022-12-28T16:49:08;100384.72;;;7.96;100.00
16016;BME280;8112;53.592;10.184;2022-12-28T16:54:13;100389.75;;;7.83;100.00
16016;BME280;8112;53.592;10.184;2022-12-28T16:59:18;100395.41;;;7.76;100.00
16016;BME280;8112;53.592;10.184;2022-12-28T17:04:23;100395.66;;;7.71;100.00
16016;BME280;8112;53.592;10.184;2022-12-28T17:09:26;100381.31;;;7.61;100.00
16016;BME280;8112;53.592;10.184;2022-12-28T17:14:27;100370.66;;;7.64;100.00
16016;BME280;8112;53.592;10.184;2022-12-28T17:19:33;100371.00;;;7.58;100.00
16016;BME280;8112;53.592;10.184;2022-12-28T17:24:35;100376.09;;;7.61;100.00
16016;BME280;8112;53.592;10.184;2022-12-28T17:29:38;100356.97;;;7.59;100.00
16016;BME280;8112;53.592;10.184;2022-12-28T17:34:42;100347.47;;;7.56;100.00
16016;BME280;8112;53.592;10.184;2022-12-28T17:39:44;100342.50;;;7.51;100.00
16016;BME280;8112;53.592;10.184;2022-12-28T17:44:46;100319.53;;;7.39;100.00
16016;BME280;8112;53.592;10.184;2022-12-28T17:49:50;100302.00;;;7.39;100.00
16016;BME280;8112;53.592;10.184;2022-12-28T17:54:53;100276.81;;;7.37;100.00
16016;BME280;8112;53.592;10.184;2022-12-28T17:59:56;100252.63;;;7.32;100.00
16016;BME280;8112;53.592;10.184;2022-12-28T18:05:00;100283.81;;;7.36;100.00
16016;BME280;8112;53.592;10.184;2022-12-28T18:10:03;100285.34;;;7.40;100.00
16016;BME280;8112;53.592;10.184;2022-12-28T18:15:06;100263.88;;;7.34;100.00
16016;BME280;8112;53.592;10.184;2022-12-28T18:20:10;100260.41;;;7.33;100.00
16016;BME280;8112;53.592;10.184;2022-12-28T18:25:14;100251.72;;;7.33;100.00
16016;BME280;8112;53.592;10.184;2022-12-28T18:30:19;100246.47;;;7.33;100.00
16016;BME280;8112;53.592;10.184;2022-12-28T18:35:23;100249.00;;;7.34;100.00
16016;BME280;8112;53.592;10.184;2022-12-28T18:40:26;100236.00;;;7.33;100.00
16016;BME280;8112;53.592;10.184;2022-12-28T18:45:28;100236.28;;;7.26;100.00
16016;BME280;8112;53.592;10.184;2022-12-28T18:50:34;100227.50;;;7.27;100.00
16016;BME280;8112;53.592;10.184;2022-12-28T18:55:36;100224.97;;;7.26;100.00
16016;BME280;8112;53.592;10.184;2022-12-28T19:00:38;100197.84;;;7.27;100.00
16016;BME280;8112;53.592;10.184;2022-12-28T19:05:42;100196.06;;;7.27;100.00
16016;BME280;8112;53.592;10.184;2022-12-28T19:10:47;100183.47;;;7.34;100.00
16016;BME280;8112;53.592;10.184;2022-12-28T19:15:49;100169.84;;;7.27;100.00
16016;BME280;8112;53.592;10.184;2022-12-28T19:20:56;100162.72;;;7.30;100.00
16016;BME280;8112;53.592;10.184;2022-12-28T19:25:58;100164.28;;;7.34;100.00
16016;BME280;8112;53.592;10.184;2022-12-28T19:31:00;100151.41;;;7.29;100.00
16016;BME280;8112;53.592;10.184;2022-12-28T19:36:05;100151.41;;;7.29;100.00
16016;BME280;8112;53.592;10.184;2022-12-28T19:41:09;100135.94;;;7.24;100.00
16016;BME280;8112;53.592;10.184;2022-12-28T19:46:17;100132.31;;;7.27;100.00
16016;BME280;8112;53.592;10.184;2022-12-28T19:51:21;100128.25;;;7.21;100.00
16016;BME280;8112;53.592;10.184;2022-12-28T19:56:24;100120.47;;;7.20;100.00
16016;BME280;8112;53.592;10.184;2022-12-28T20:01:26;100112.88;;;7.15;100.00
16016;BME280;8112;53.592;10.184;2022-12-28T20:06:30;100118.25;;;7.12;100.00
16016;BME280;8112;53.592;10.184;2022-12-28T20:11:33;100115.06;;;7.07;100.00
16016;BME280;8112;53.592;10.184;2022-12-28T20:16:37;100110.34;;;6.97;100.00
16016;BME280;8112;53.592;10.184;2022-12-28T20:21:45;100103.22;;;6.99;100.00
16016;BME280;8112;53.592;10.184;2022-12-28T20:26:48;100098.31;;;6.93;100.00
16016;BME280;8112;53.592;10.184;2022-12-28T20:31:55;100091.53;;;6.89;100.00
16016;BME280;8112;53.592;10.184;2022-12-28T20:37:01;100080.06;;;6.92;100.00
16016;BME280;8112;53.592;10.184;2022-12-28T20:42:04;100069.06;;;6.85;100.00
16016;BME280;8112;53.592;10.184;2022-12-28T20:47:23;100067.56;;;6.81;100.00
16016;BME280;8112;53.592;10.184;2022-12-28T20:52:27;100059.78;;;6.79;100.00
16016;BME280;8112;53.592;10.184;2022-12-28T20:57:29;100050.16;;;6.80;100.00
16016;BME280;8112;53.592;10.184;2022-12-28T21:02:32;100041.38;;;6.81;100.00
16016;BME280;8112;53.592;10.184;2022-12-28T21:07:37;100039.06;;;6.75;100.00
16016;BME280;8112;53.592;10.184;2022-12-28T21:12:40;100021.50;;;6.77;100.00
16016;BME280;8112;53.592;10.184;2022-12-28T21:17:43;100011.47;;;6.69;100.00
16016;BME280;8112;53.592;10.184;2022-12-28T21:22:46;99996.75;;;6.66;100.00
16016;BME280;8112;53.592;10.184;2022-12-28T21:27:48;99979.94;;;6.70;100.00
16016;BME280;8112;53.592;10.184;2022-12-28T21:32:50;99982.72;;;6.67;100.00
16016;BME280;8112;53.592;10.184;2022-12-28T21:37:56;99968.78;;;6.67;100.00
16016;BME280;8112;53.592;10.184;2022-12-28T21:42:58;99970.41;;;6.69;100.00
16016;BME280;8112;53.592;10.184;2022-12-28T21:48:00;99953.19;;;6.65;100.00
16016;BME280;8112;53.592;10.184;2022-12-28T21:53:04;99949.44;;;6.69;100.00
16016;BME280;8112;53.592;10.184;2022-12-28T21:58:06;99956.38;;;6.70;100.00
16016;BME280;8112;53.592;10.184;2022-12-28T22:03:09;99949.38;;;6.71;100.00
16016;BME280;8112;53.592;10.184;2022-12-28T22:08:31;99939.84;;;6.70;100.00
16016;BME280;8112;53.592;10.184;2022-12-28T22:13:51;99918.03;;;6.69;100.00
16016;BME280;8112;53.592;10.184;2022-12-28T22:18:53;99917.09;;;6.70;100.00
16016;BME280;8112;53.592;10.184;2022-12-28T22:23:57;99919.53;;;6.74;100.00
16016;BME280;8112;53.592;10.184;2022-12-28T22:28:59;99903.25;;;6.68;100.00
16016;BME280;8112;53.592;10.184;2022-12-28T22:34:03;99909.81;;;6.76;100.00
16016;BME280;8112;53.592;10.184;2022-12-28T22:39:07;99905.19;;;6.81;100.00
16016;BME280;8112;53.592;10.184;2022-12-28T22:44:09;99900.13;;;6.78;100.00
16016;BME280;8112;53.592;10.184;2022-12-28T22:49:11;99889.47;;;6.81;100.00
16016;BME280;8112;53.592;10.184;2022-12-28T22:54:14;99885.56;;;6.88;100.00
16016;BME280;8112;53.592;10.184;2022-12-28T22:59:16;99877.63;;;6.90;100.00
16016;BME280;8112;53.592;10.184;2022-12-28T23:04:18;99870.72;;;6.89;100.00
16016;BME280;8112;53.592;10.184;2022-12-28T23:09:22;99870.28;;;6.96;100.00
16016;BME280;8112;53.592;10.184;2022-12-28T23:14:25;99876.44;;;6.95;100.00
16016;BME280;8112;53.592;10.184;2022-12-28T23:19:45;99874.84;;;6.93;100.00
16016;BME280;8112;53.592;10.184;2022-12-28T23:25:10;99870.41;;;6.93;100.00
16016;BME280;8112;53.592;10.184;2022-12-28T23:30:30;99875.22;;;7.01;100.00
16016;BME280;8112;53.592;10.184;2022-12-28T23:35:31;99873.84;;;7.10;100.00
16016;BME280;8112;53.592;10.184;2022-12-28T23:40:36;99856.44;;;7.09;100.00
16016;BME280;8112;53.592;10.184;2022-12-28T23:45:41;99859.53;;;7.16;100.00
16016;BME280;8112;53.592;10.184;2022-12-28T23:50:44;99855.72;;;7.21;100.00
16016;BME280;8112;53.592;10.184;2022-12-28T23:55:48;99846.94;;;7.22;100.00
